Time;durP1;ratioP1;P1;durP2;ratioP2;P2;SDS_P1;SDS_P2;PMS_P1;PMS_P2;Temp;Humidity;BMP_temperature;BMP_pressure;BME280_temperature;BME280_humidity;BME280_pressure;Samples;Min_cycle;Max_cycle;Signal;HPM_P1;HPM_P2
2022/03/30 00:00:11;;;;;;;71.80;24.25;;;;;;;;;;5068358;28;20028;-51
2022/03/30 00:02:37;;;;;;;56.45;22.65;;;;;;;;;;5067755;28;20089;-51
2022/03/30 00:05:03;;;;;;;63.70;24.98;;;;;;;;;;5063406;28;20553;-50
2022/03/30 00:07:31;;;;;;;68.85;25.48;;;;;;;;;;5069389;28;20100;-49
2022/03/30 00:10:07;;;;;;;84.70;27.48;;;;;;;;;;5060029;28;20111;-49
2022/03/30 00:12:34;;;;;;;67.38;26.52;;;;;;;;;;5071902;28;20040;-50
2022/03/30 00:15:00;;;;;;;70.85;26.50;;;;;;;;;;5069649;28;20037;-49
2022/03/30 00:17:26;;;;;;;75.22;27.08;;;;;;;;;;5074001;28;20385;-50
2022/03/30 00:19:52;;;;;;;77.70;29.02;;;;;;;;;;5065828;28;20596;-51
2022/03/30 00:22:18;;;;;;;83.28;31.33;;;;;;;;;;5071696;28;20119;-50
2022/03/30 00:24:44;;;;;;;75.20;28.27;;;;;;;;;;5066690;28;20426;-50
2022/03/30 00:27:13;;;;;;;74.68;28.75;;;;;;;;;;5072014;28;20044;-50
2022/03/30 00:29:39;;;;;;;86.95;29.58;;;;;;;;;;5066324;28;20025;-50
2022/03/30 00:32:05;;;;;;;86.25;30.95;;;;;;;;;;5067880;28;20513;-50
2022/03/30 00:34:31;;;;;;;94.22;31.10;;;;;;;;;;5064774;28;20542;-52
2022/03/30 00:36:57;;;;;;;87.57;31.52;;;;;;;;;;5068065;28;20052;-50
2022/03/30 00:39:22;;;;;;;87.95;31.02;;;;;;;;;;5068405;28;20032;-49
2022/03/30 00:41:48;;;;;;;85.15;29.95;;;;;;;;;;5068373;28;20051;-49
2022/03/30 00:44:15;;;;;;;88.78;32.33;;;;;;;;;;5064610;28;20111;-51
2022/03/30 00:46:44;;;;;;;95.25;33.22;;;;;;;;;;5071392;28;20060;-49
2022/03/30 00:49:11;;;;;;;98.00;32.75;;;;;;;;;;5070521;28;20063;-49
2022/03/30 00:51:37;;;;;;;101.18;32.38;;;;;;;;;;5065154;28;20032;-51
2022/03/30 00:54:04;;;;;;;96.75;31.73;;;;;;;;;;5067296;28;20506;-49
2022/03/30 00:56:32;;;;;;;93.13;31.13;;;;;;;;;;5068659;28;20020;-49
2022/03/30 00:58:59;;;;;;;85.80;29.70;;;;;;;;;;5066969;28;20032;-53
2022/03/30 01:01:24;;;;;;;84.60;30.98;;;;;;;;;;5064946;28;20544;-51
2022/03/30 01:03:50;;;;;;;86.78;28.50;;;;;;;;;;5067891;28;20127;-52
2022/03/30 01:06:16;;;;;;;83.25;28.10;;;;;;;;;;5066922;28;20052;-50
2022/03/30 01:08:42;;;;;;;86.60;27.98;;;;;;;;;;5067771;28;20040;-53
2022/03/30 01:11:10;;;;;;;74.80;27.60;;;;;;;;;;5066514;28;20028;-49
2022/03/30 01:13:35;;;;;;;79.30;28.85;;;;;;;;;;5068754;28;20059;-51
2022/03/30 01:16:02;;;;;;;84.03;29.13;;;;;;;;;;5068537;28;20064;-53
2022/03/30 01:18:28;;;;;;;78.53;29.02;;;;;;;;;;5067050;28;20111;-49
2022/03/30 01:20:53;;;;;;;91.85;32.10;;;;;;;;;;5061176;28;20554;-50
2022/03/30 01:23:19;;;;;;;102.05;33.97;;;;;;;;;;5067920;28;20028;-53
2022/03/30 01:25:44;;;;;;;108.13;35.75;;;;;;;;;;5074596;28;20449;-52
2022/03/30 01:28:11;;;;;;;110.30;34.28;;;;;;;;;;5070743;28;20033;-50
2022/03/30 01:33:20;;;;;;;104.10;32.13;;;;;;;;;;5072315;28;20118;-51
2022/03/30 01:35:46;;;;;;;107.10;32.83;;;;;;;;;;5073046;28;20021;-50
2022/03/30 01:38:12;;;;;;;94.22;32.80;;;;;;;;;;5070160;28;20066;-51
2022/03/30 01:40:38;;;;;;;101.72;31.83;;;;;;;;;;5070419;28;20146;-50
2022/03/30 01:43:04;;;;;;;102.57;34.45;;;;;;;;;;5066604;28;20028;-50
2022/03/30 01:45:30;;;;;;;126.13;37.53;;;;;;;;;;5060873;28;20460;-50
2022/03/30 01:47:58;;;;;;;104.22;34.58;;;;;;;;;;5066750;28;20040;-54
2022/03/30 01:50:25;;;;;;;113.53;37.55;;;;;;;;;;5064658;28;20016;-50
2022/03/30 01:52:52;;;;;;;109.80;35.33;;;;;;;;;;5069660;28;20375;-53
2022/03/30 01:55:18;;;;;;;120.25;38.80;;;;;;;;;;5067633;28;20028;-51
2022/03/30 01:57:45;;;;;;;115.88;36.28;;;;;;;;;;5074080;28;20512;-53
2022/03/30 02:00:12;;;;;;;118.97;36.83;;;;;;;;;;5065411;28;20048;-53
2022/03/30 02:02:39;;;;;;;115.63;35.75;;;;;;;;;;5067989;28;20040;-53
2022/03/30 02:05:06;;;;;;;116.70;36.38;;;;;;;;;;5066058;28;20027;-54
2022/03/30 02:07:32;;;;;;;106.78;34.60;;;;;;;;;;5066335;28;20546;-52
2022/03/30 02:09:57;;;;;;;105.93;34.58;;;;;;;;;;5072491;28;20043;-53
2022/03/30 02:12:23;;;;;;;112.43;35.17;;;;;;;;;;5060874;28;20029;-52
2022/03/30 02:14:51;;;;;;;96.00;32.35;;;;;;;;;;5065547;28;20538;-50
2022/03/30 02:17:18;;;;;;;97.03;30.35;;;;;;;;;;5072603;28;20037;-50
2022/03/30 02:19:44;;;;;;;89.90;29.77;;;;;;;;;;5068205;28;20032;-49
2022/03/30 02:22:10;;;;;;;85.00;29.23;;;;;;;;;;5065136;28;20032;-53
2022/03/30 02:24:35;;;;;;;85.50;29.05;;;;;;;;;;5073519;28;20071;-49
2022/03/30 02:27:01;;;;;;;83.28;27.40;;;;;;;;;;5077016;28;20090;-49
2022/03/30 02:29:26;;;;;;;86.60;28.88;;;;;;;;;;5070449;28;20039;-50
2022/03/30 02:31:52;;;;;;;92.25;29.83;;;;;;;;;;5073443;28;20024;-49
2022/03/30 02:34:17;;;;;;;98.75;32.67;;;;;;;;;;5071109;28;20486;-49
2022/03/30 02:36:45;;;;;;;84.10;30.05;;;;;;;;;;5067882;28;20428;-49
2022/03/30 02:39:12;;;;;;;84.57;28.55;;;;;;;;;;5072632;28;20043;-49
2022/03/30 02:41:37;;;;;;;96.15;28.63;;;;;;;;;;5073922;28;20036;-50
2022/03/30 02:44:03;;;;;;;76.72;26.88;;;;;;;;;;5070998;28;20036;-50
2022/03/30 02:46:29;;;;;;;82.10;27.42;;;;;;;;;;5071570;28;20395;-49
2022/03/30 02:48:54;;;;;;;80.40;26.35;;;;;;;;;;5070877;28;20544;-50
2022/03/30 02:51:20;;;;;;;92.78;28.58;;;;;;;;;;5069628;28;20063;-51
2022/03/30 02:53:45;;;;;;;71.03;27.90;;;;;;;;;;5069146;28;20052;-49
2022/03/30 02:56:11;;;;;;;81.90;27.60;;;;;;;;;;5069372;28;20493;-50
2022/03/30 02:58:36;;;;;;;77.35;27.17;;;;;;;;;;5069884;28;20028;-49
2022/03/30 03:01:02;;;;;;;73.63;26.42;;;;;;;;;;5073237;28;20039;-50
2022/03/30 03:03:28;;;;;;;79.53;28.15;;;;;;;;;;5068720;28;20395;-49
2022/03/30 03:05:53;;;;;;;85.70;27.52;;;;;;;;;;5072638;28;20490;-50
2022/03/30 03:08:19;;;;;;;95.05;29.10;;;;;;;;;;5069746;28;20023;-54
2022/03/30 03:10:46;;;;;;;94.90;31.17;;;;;;;;;;5071364;28;20041;-52
2022/03/30 03:13:13;;;;;;;96.78;31.40;;;;;;;;;;5071307;28;20024;-52
2022/03/30 03:15:40;;;;;;;93.72;31.23;;;;;;;;;;5071964;28;20028;-49
2022/03/30 03:18:06;;;;;;;96.60;31.42;;;;;;;;;;5071948;28;20248;-49
2022/03/30 03:20:35;;;;;;;112.53;34.05;;;;;;;;;;5068159;28;20131;-53
2022/03/30 03:23:02;;;;;;;105.40;32.58;;;;;;;;;;5066926;28;20036;-50
2022/03/30 03:25:29;;;;;;;117.03;36.75;;;;;;;;;;5063761;28;20032;-50
2022/03/30 03:27:55;;;;;;;110.10;36.15;;;;;;;;;;5068064;28;20060;-51
2022/03/30 03:30:21;;;;;;;124.72;37.35;;;;;;;;;;5069580;28;20056;-49
2022/03/30 03:32:46;;;;;;;130.52;40.47;;;;;;;;;;5071006;28;20063;-49
2022/03/30 03:35:13;;;;;;;141.10;41.40;;;;;;;;;;5069584;28;20040;-49
2022/03/30 03:37:40;;;;;;;127.57;40.08;;;;;;;;;;5085754;28;20033;-50
2022/03/30 03:40:07;;;;;;;147.82;41.92;;;;;;;;;;5070890;28;20028;-49
2022/03/30 03:42:33;;;;;;;134.85;41.70;;;;;;;;;;5071654;28;20115;-49
2022/03/30 03:44:59;;;;;;;141.00;41.92;;;;;;;;;;5065823;28;20028;-49
2022/03/30 03:47:25;;;;;;;142.68;42.95;;;;;;;;;;5071767;28;20492;-50
2022/03/30 03:49:51;;;;;;;150.75;42.25;;;;;;;;;;5072102;28;20032;-50
2022/03/30 03:52:16;;;;;;;131.52;40.70;;;;;;;;;;5068001;28;20037;-49
2022/03/30 03:54:42;;;;;;;140.55;42.58;;;;;;;;;;5068318;28;20082;-52
2022/03/30 03:57:08;;;;;;;142.32;40.72;;;;;;;;;;5064702;28;20028;-49
2022/03/30 03:59:34;;;;;;;144.25;41.35;;;;;;;;;;5068193;28;20109;-51
2022/03/30 04:01:59;;;;;;;134.63;38.88;;;;;;;;;;5069283;28;20597;-50
2022/03/30 04:04:25;;;;;;;124.15;39.72;;;;;;;;;;5067572;28;20029;-49
2022/03/30 04:06:50;;;;;;;137.32;38.60;;;;;;;;;;5068788;28;20062;-51
2022/03/30 04:09:16;;;;;;;127.82;39.13;;;;;;;;;;5071258;28;20040;-50
2022/03/30 04:11:42;;;;;;;130.27;37.70;;;;;;;;;;5071921;28;20024;-49
2022/03/30 04:14:08;;;;;;;120.15;34.47;;;;;;;;;;5066762;28;20035;-50
2022/03/30 04:16:33;;;;;;;132.07;37.55;;;;;;;;;;5069550;28;20025;-49
2022/03/30 04:18:59;;;;;;;119.53;34.33;;;;;;;;;;5068245;28;20028;-50
2022/03/30 04:21:24;;;;;;;107.68;33.40;;;;;;;;;;5069284;28;20070;-50
2022/03/30 04:23:50;;;;;;;119.65;33.55;;;;;;;;;;5066514;28;20387;-50
2022/03/30 04:26:15;;;;;;;105.63;33.65;;;;;;;;;;5077484;28;20484;-49
2022/03/30 04:28:41;;;;;;;97.55;33.38;;;;;;;;;;5068110;28;20028;-49
2022/03/30 04:31:11;;;;;;;107.63;32.95;;;;;;;;;;5063281;28;20032;-50
2022/03/30 04:33:37;;;;;;;116.88;32.25;;;;;;;;;;5063784;28;20024;-49
2022/03/30 04:36:03;;;;;;;112.50;31.15;;;;;;;;;;5065905;28;20097;-49
2022/03/30 04:38:29;;;;;;;94.50;28.33;;;;;;;;;;5066264;28;20078;-50
2022/03/30 04:40:55;;;;;;;83.53;28.05;;;;;;;;;;5071317;28;20020;-49
2022/03/30 04:43:20;;;;;;;94.15;29.55;;;;;;;;;;5075749;28;20027;-50
2022/03/30 04:45:46;;;;;;;103.75;29.35;;;;;;;;;;5066151;28;20479;-49
2022/03/30 04:48:11;;;;;;;87.80;29.05;;;;;;;;;;5074091;28;20055;-49
2022/03/30 04:50:37;;;;;;;94.28;29.60;;;;;;;;;;5063688;28;20036;-49
2022/03/30 04:53:02;;;;;;;83.78;27.55;;;;;;;;;;5067330;28;20028;-49
2022/03/30 04:55:31;;;;;;;75.97;26.23;;;;;;;;;;5067977;28;20043;-49
2022/03/30 04:57:57;;;;;;;69.10;23.98;;;;;;;;;;5069908;28;20052;-51
2022/03/30 05:00:22;;;;;;;70.38;24.88;;;;;;;;;;5064253;28;20035;-49
2022/03/30 05:02:48;;;;;;;84.88;25.45;;;;;;;;;;5071402;28;20027;-49
2022/03/30 05:05:14;;;;;;;103.00;27.75;;;;;;;;;;5063100;28;20032;-50
2022/03/30 05:07:40;;;;;;;87.70;27.77;;;;;;;;;;5066798;28;20046;-49
2022/03/30 05:10:09;;;;;;;86.53;26.17;;;;;;;;;;5065603;28;20037;-50
2022/03/30 05:12:34;;;;;;;100.63;30.65;;;;;;;;;;5069386;28;20028;-50
2022/03/30 05:15:00;;;;;;;98.60;31.20;;;;;;;;;;5066596;28;20104;-49
2022/03/30 05:17:26;;;;;;;105.22;32.28;;;;;;;;;;5062428;28;20485;-50
2022/03/30 05:19:51;;;;;;;113.15;32.38;;;;;;;;;;5069332;28;20039;-50
2022/03/30 05:22:17;;;;;;;114.32;33.75;;;;;;;;;;5071094;28;20546;-49
2022/03/30 05:24:43;;;;;;;130.38;35.13;;;;;;;;;;5068935;28;20716;-50
2022/03/30 05:27:09;;;;;;;132.57;40.15;;;;;;;;;;5061439;28;20180;-52
2022/03/30 05:29:35;;;;;;;166.05;44.63;;;;;;;;;;5066183;28;20126;-49
2022/03/30 05:32:01;;;;;;;176.43;48.80;;;;;;;;;;5070058;28;20056;-49
2022/03/30 05:34:27;;;;;;;173.13;50.20;;;;;;;;;;5065971;28;20102;-50
2022/03/30 05:36:53;;;;;;;186.70;52.17;;;;;;;;;;5066034;28;20036;-49
2022/03/30 05:39:18;;;;;;;181.35;49.30;;;;;;;;;;5080247;28;20028;-49
2022/03/30 05:41:44;;;;;;;201.52;53.85;;;;;;;;;;5068251;28;20029;-50
2022/03/30 05:44:09;;;;;;;212.52;54.92;;;;;;;;;;5063744;28;20037;-50
2022/03/30 05:46:36;;;;;;;198.18;52.47;;;;;;;;;;5077583;28;20025;-49
2022/03/30 05:49:03;;;;;;;190.75;54.58;;;;;;;;;;5069867;28;20563;-49
2022/03/30 05:51:29;;;;;;;194.52;53.20;;;;;;;;;;5064448;28;20398;-49
2022/03/30 05:53:54;;;;;;;191.90;50.70;;;;;;;;;;5064965;28;20021;-50
2022/03/30 05:56:59;;;;;;;199.65;52.53;;;;;;;;;;5064504;28;20058;-50
2022/03/30 05:59:05;;;;;;;187.77;48.63;;;;;;;;;;5068222;28;20061;-50
2022/03/30 06:01:31;;;;;;;178.88;49.42;;;;;;;;;;5064530;28;20033;-51
2022/03/30 06:03:56;;;;;;;188.85;52.60;;;;;;;;;;5066370;28;20037;-49
2022/03/30 06:06:22;;;;;;;176.05;48.45;;;;;;;;;;5066469;28;20045;-49
2022/03/30 06:08:47;;;;;;;175.15;47.58;;;;;;;;;;5062150;28;20310;-50
2022/03/30 06:11:13;;;;;;;178.93;46.53;;;;;;;;;;5066155;28;20033;-49
2022/03/30 06:13:38;;;;;;;156.45;44.55;;;;;;;;;;5066815;28;20032;-50
2022/03/30 06:16:04;;;;;;;176.43;48.25;;;;;;;;;;5065843;28;20021;-50
2022/03/30 06:18:30;;;;;;;172.95;49.47;;;;;;;;;;5064193;28;20112;-52
2022/03/30 06:20:55;;;;;;;197.75;52.15;;;;;;;;;;5066636;28;20127;-50
2022/03/30 06:23:21;;;;;;;191.20;50.67;;;;;;;;;;5067403;28;20547;-53
2022/03/30 06:25:46;;;;;;;177.65;45.70;;;;;;;;;;5067888;28;20032;-49
2022/03/30 06:28:12;;;;;;;199.50;52.15;;;;;;;;;;5063706;28;20082;-49
2022/03/30 06:30:38;;;;;;;196.07;52.40;;;;;;;;;;5060152;28;20032;-50
2022/03/30 06:33:04;;;;;;;204.18;55.00;;;;;;;;;;5062336;28;20074;-51
2022/03/30 06:35:30;;;;;;;198.20;51.40;;;;;;;;;;5064067;28;20041;-52
2022/03/30 06:37:55;;;;;;;209.68;54.20;;;;;;;;;;5065284;28;20033;-53
2022/03/30 06:40:21;;;;;;;220.35;56.17;;;;;;;;;;5061727;28;20028;-51
2022/03/30 06:42:48;;;;;;;216.57;58.75;;;;;;;;;;5061542;28;20066;-50
2022/03/30 06:45:14;;;;;;;204.52;55.20;;;;;;;;;;5062367;28;20029;-49
2022/03/30 06:47:40;;;;;;;226.65;56.83;;;;;;;;;;5060769;28;20135;-50
2022/03/30 06:50:07;;;;;;;216.23;55.10;;;;;;;;;;5059544;28;20139;-52
2022/03/30 06:52:35;;;;;;;224.73;56.25;;;;;;;;;;5063615;28;20518;-52
2022/03/30 06:55:02;;;;;;;203.43;55.08;;;;;;;;;;5066610;28;20119;-50
2022/03/30 06:57:28;;;;;;;209.40;55.90;;;;;;;;;;5058052;28;20103;-51
2022/03/30 06:59:54;;;;;;;231.80;60.67;;;;;;;;;;5064145;28;20123;-50
2022/03/30 07:02:19;;;;;;;209.00;57.55;;;;;;;;;;5074361;28;20032;-51
2022/03/30 07:04:45;;;;;;;223.80;58.67;;;;;;;;;;5070922;28;20511;-52
2022/03/30 07:12:38;;;;;;;224.48;58.20;;;;;;;;;;5068786;28;20605;-53
2022/03/30 07:15:04;;;;;;;222.50;58.83;;;;;;;;;;5066442;28;20036;-51
2022/03/30 07:17:30;;;;;;;212.18;56.15;;;;;;;;;;5075418;28;20418;-51
2022/03/30 07:19:56;;;;;;;221.73;54.05;;;;;;;;;;5071650;28;20086;-53
2022/03/30 07:22:22;;;;;;;215.30;55.55;;;;;;;;;;5075030;28;20040;-50
2022/03/30 07:24:48;;;;;;;219.85;59.05;;;;;;;;;;5066528;28;20086;-53
2022/03/30 07:27:13;;;;;;;215.75;59.72;;;;;;;;;;5074193;28;20032;-50
2022/03/30 07:29:39;;;;;;;220.05;59.53;;;;;;;;;;5070200;28;20453;-54
2022/03/30 07:32:05;;;;;;;216.90;61.15;;;;;;;;;;5068510;28;20044;-53
2022/03/30 07:34:30;;;;;;;224.50;59.38;;;;;;;;;;5075068;28;20489;-53
2022/03/30 07:36:58;;;;;;;211.80;55.65;;;;;;;;;;5068430;28;20032;-50
2022/03/30 07:39:23;;;;;;;215.27;59.05;;;;;;;;;;5065667;28;20028;-50
2022/03/30 07:41:49;;;;;;;250.82;63.47;;;;;;;;;;5066590;28;20414;-50
2022/03/30 07:44:14;;;;;;;241.23;60.65;;;;;;;;;;5068869;28;20067;-50
2022/03/30 07:46:40;;;;;;;220.88;57.83;;;;;;;;;;5068824;28;20539;-50
2022/03/30 07:49:06;;;;;;;214.60;51.10;;;;;;;;;;5069083;28;20030;-50
2022/03/30 07:51:31;;;;;;;114.45;30.42;;;;;;;;;;5063225;28;20485;-52
2022/03/30 07:53:57;;;;;;;99.20;25.58;;;;;;;;;;5069176;28;20032;-49
2022/03/30 07:56:23;;;;;;;97.80;24.52;;;;;;;;;;5068450;28;20089;-50
2022/03/30 07:58:49;;;;;;;102.72;25.75;;;;;;;;;;5064149;28;20614;-50
2022/03/30 08:01:18;;;;;;;103.25;25.15;;;;;;;;;;5065778;28;20124;-49
2022/03/30 08:03:44;;;;;;;97.60;24.65;;;;;;;;;;5068524;28;20485;-50
2022/03/30 08:06:11;;;;;;;103.00;24.10;;;;;;;;;;5068671;28;20139;-50
2022/03/30 08:08:37;;;;;;;90.82;20.75;;;;;;;;;;5064650;28;20025;-50
2022/03/30 08:11:02;;;;;;;93.47;22.30;;;;;;;;;;5067069;28;20032;-50
2022/03/30 08:13:28;;;;;;;81.32;21.77;;;;;;;;;;5068129;28;20495;-50
2022/03/30 08:15:53;;;;;;;105.45;21.02;;;;;;;;;;5066292;28;20032;-50
2022/03/30 08:18:19;;;;;;;80.70;19.23;;;;;;;;;;5066309;28;20056;-49
2022/03/30 08:23:39;;;;;;;87.85;19.67;;;;;;;;;;5007614;28;20052;-50
2022/03/30 08:26:05;;;;;;;74.78;18.55;;;;;;;;;;5065420;28;20029;-50
2022/03/30 08:28:31;;;;;;;79.55;17.90;;;;;;;;;;5067586;28;20036;-50
2022/03/30 08:30:57;;;;;;;67.18;16.48;;;;;;;;;;5069098;28;20032;-50
2022/03/30 08:33:26;;;;;;;69.53;17.23;;;;;;;;;;5067533;28;20032;-50
2022/03/30 08:35:55;;;;;;;57.42;15.98;;;;;;;;;;5068355;28;20093;-49
2022/03/30 08:38:21;;;;;;;91.55;16.85;;;;;;;;;;5068495;28;20292;-49
2022/03/30 08:40:47;;;;;;;68.35;14.80;;;;;;;;;;5070548;28;20058;-50
2022/03/30 08:43:13;;;;;;;62.13;15.25;;;;;;;;;;5072242;28;20021;-49
2022/03/30 08:45:39;;;;;;;56.10;15.25;;;;;;;;;;5071264;28;20461;-49
2022/03/30 08:48:05;;;;;;;59.95;16.75;;;;;;;;;;5067906;28;20028;-50
2022/03/30 08:50:31;;;;;;;69.55;15.45;;;;;;;;;;5065112;28;20502;-49
2022/03/30 08:53:05;;;;;;;66.13;16.05;;;;;;;;;;5060105;28;20028;-50
2022/03/30 08:55:31;;;;;;;70.38;19.17;;;;;;;;;;5066219;28;20536;-49
2022/03/30 08:57:57;;;;;;;84.00;17.80;;;;;;;;;;5067212;28;20064;-51
2022/03/30 09:00:24;;;;;;;65.30;17.52;;;;;;;;;;5060306;28;20033;-50
2022/03/30 09:03:03;;;;;;;72.85;17.65;;;;;;;;;;5069551;28;20029;-49
2022/03/30 09:05:34;;;;;;;66.25;18.05;;;;;;;;;;5064011;28;20016;-50
2022/03/30 09:08:25;;;;;;;67.03;17.80;;;;;;;;;;5064718;28;20052;-50
2022/03/30 09:10:54;;;;;;;69.80;16.47;;;;;;;;;;5060255;28;20024;-49
2022/03/30 09:13:21;;;;;;;78.30;17.05;;;;;;;;;;5071119;28;20082;-50
2022/03/30 09:15:48;;;;;;;77.07;17.33;;;;;;;;;;5066555;28;20065;-50
2022/03/30 09:18:15;;;;;;;63.10;17.00;;;;;;;;;;5057847;28;20029;-49
2022/03/30 09:20:43;;;;;;;57.80;14.25;;;;;;;;;;5063563;28;20029;-50
2022/03/30 09:23:10;;;;;;;66.10;16.10;;;;;;;;;;5067078;28;20363;-49
2022/03/30 09:25:36;;;;;;;93.82;16.30;;;;;;;;;;5064543;28;20058;-49
2022/03/30 09:28:02;;;;;;;67.72;16.83;;;;;;;;;;5066688;28;20051;-50
2022/03/30 09:30:29;;;;;;;67.93;15.32;;;;;;;;;;5074891;28;20031;-50
2022/03/30 09:32:57;;;;;;;61.20;14.98;;;;;;;;;;5065501;28;20037;-52
2022/03/30 09:35:43;;;;;;;55.80;13.57;;;;;;;;;;5059383;28;20059;-50
2022/03/30 09:38:14;;;;;;;74.47;14.43;;;;;;;;;;5068530;28;20040;-51
2022/03/30 09:40:41;;;;;;;53.00;14.38;;;;;;;;;;5069653;28;20023;-50
2022/03/30 09:43:41;;;;;;;50.90;13.38;;;;;;;;;;5064224;28;20027;-51
2022/03/30 09:46:06;;;;;;;46.08;12.27;;;;;;;;;;5064637;28;20054;-51
2022/03/30 09:48:58;;;;;;;70.32;13.35;;;;;;;;;;5063362;28;20028;-50
2022/03/30 09:51:27;;;;;;;68.93;13.35;;;;;;;;;;5056773;28;20032;-50
2022/03/30 09:53:53;;;;;;;38.83;10.25;;;;;;;;;;5066428;28;20115;-50
2022/03/30 09:56:23;;;;;;;47.05;12.23;;;;;;;;;;5063689;28;20108;-52
2022/03/30 09:58:49;;;;;;;48.40;11.48;;;;;;;;;;5075232;28;20036;-50
2022/03/30 10:01:23;;;;;;;56.15;11.88;;;;;;;;;;5064616;28;20028;-52
2022/03/30 10:04:04;;;;;;;41.83;10.07;;;;;;;;;;5059319;28;20040;-50
2022/03/30 10:06:33;;;;;;;39.38;11.13;;;;;;;;;;5059977;28;20131;-52
2022/03/30 10:08:58;;;;;;;39.08;9.88;;;;;;;;;;5059281;28;20040;-50
2022/03/30 10:11:27;;;;;;;54.70;10.77;;;;;;;;;;5068440;28;20029;-52
2022/03/30 10:13:55;;;;;;;40.90;10.27;;;;;;;;;;5064249;28;20037;-51
2022/03/30 10:16:22;;;;;;;46.47;10.35;;;;;;;;;;5065815;28;20036;-51
2022/03/30 10:18:50;;;;;;;49.67;9.38;;;;;;;;;;5063834;28;20368;-51
2022/03/30 10:21:36;;;;;;;34.97;9.15;;;;;;;;;;5068730;28;20036;-50
2022/03/30 10:24:33;;;;;;;40.20;8.98;;;;;;;;;;5062375;28;20028;-50
2022/03/30 10:26:58;;;;;;;37.90;8.77;;;;;;;;;;5063988;28;20033;-50
2022/03/30 10:29:27;;;;;;;35.47;9.82;;;;;;;;;;5064208;28;20028;-50
2022/03/30 10:32:15;;;;;;;55.33;10.55;;;;;;;;;;5063697;28;20036;-51
2022/03/30 10:35:08;;;;;;;42.10;11.98;;;;;;;;;;5064577;28;20119;-50
2022/03/30 10:37:40;;;;;;;40.83;10.73;;;;;;;;;;5066878;28;20047;-50
2022/03/30 10:40:15;;;;;;;40.30;10.65;;;;;;;;;;5068863;28;20047;-50
2022/03/30 10:42:47;;;;;;;57.22;12.63;;;;;;;;;;5065994;28;20443;-51
2022/03/30 10:45:28;;;;;;;39.20;11.27;;;;;;;;;;5071024;28;20020;-50
2022/03/30 10:48:19;;;;;;;33.60;10.40;;;;;;;;;;5070872;28;20123;-51
2022/03/30 10:50:53;;;;;;;48.10;12.98;;;;;;;;;;5066289;28;20059;-48
2022/03/30 10:53:31;;;;;;;39.05;11.63;;;;;;;;;;5065123;28;20020;-50
2022/03/30 10:56:09;;;;;;;63.38;12.40;;;;;;;;;;5060103;28;20417;-50
2022/03/30 10:58:59;;;;;;;43.53;10.52;;;;;;;;;;5068498;28;20458;-50
2022/03/30 11:01:36;;;;;;;55.65;12.23;;;;;;;;;;5062824;28;20445;-50
2022/03/30 11:04:10;;;;;;;44.95;10.90;;;;;;;;;;5064660;28;20107;-51
2022/03/30 11:06:42;;;;;;;34.78;8.70;;;;;;;;;;5067820;28;20576;-52
2022/03/30 11:09:25;;;;;;;23.40;7.35;;;;;;;;;;5060733;28;20040;-51
2022/03/30 11:12:08;;;;;;;38.20;8.32;;;;;;;;;;5069739;28;20079;-51
2022/03/30 11:14:40;;;;;;;41.22;8.25;;;;;;;;;;5071146;28;20083;-51
2022/03/30 11:17:07;;;;;;;34.53;8.57;;;;;;;;;;5067781;28;20032;-50
2022/03/30 11:19:49;;;;;;;29.42;6.90;;;;;;;;;;5064093;28;20036;-50
2022/03/30 11:22:15;;;;;;;27.85;5.22;;;;;;;;;;5071168;28;20036;-50
2022/03/30 11:24:43;;;;;;;23.85;5.60;;;;;;;;;;5068048;28;20025;-50
2022/03/30 11:27:08;;;;;;;28.25;5.05;;;;;;;;;;5066576;28;20032;-50
2022/03/30 11:29:40;;;;;;;21.88;5.78;;;;;;;;;;5062575;28;20028;-51
2022/03/30 11:32:23;;;;;;;25.05;5.38;;;;;;;;;;5060543;28;20028;-52
2022/03/30 11:35:04;;;;;;;21.48;5.45;;;;;;;;;;5069605;28;20020;-53
2022/03/30 11:37:35;;;;;;;23.88;4.63;;;;;;;;;;5066066;28;20028;-48
2022/03/30 11:40:04;;;;;;;21.73;5.97;;;;;;;;;;5062067;28;20440;-50
2022/03/30 11:42:30;;;;;;;16.55;5.38;;;;;;;;;;5068341;28;20032;-51
2022/03/30 11:45:13;;;;;;;27.08;5.15;;;;;;;;;;5068106;28;20028;-52
2022/03/30 11:47:40;;;;;;;24.45;4.78;;;;;;;;;;5061040;28;20028;-53
2022/03/30 11:50:06;;;;;;;32.10;5.95;;;;;;;;;;5067784;28;20044;-53
2022/03/30 11:52:32;;;;;;;19.65;5.63;;;;;;;;;;5067814;28;20024;-51
2022/03/30 11:54:58;;;;;;;33.60;6.25;;;;;;;;;;5069901;28;20034;-54
2022/03/30 11:57:23;;;;;;;41.60;6.72;;;;;;;;;;5068003;28;20035;-52
2022/03/30 12:00:00;;;;;;;22.33;5.75;;;;;;;;;;5064687;28;20062;-51
2022/03/30 12:02:29;;;;;;;23.77;4.90;;;;;;;;;;5068129;28;20066;-52
2022/03/30 12:04:56;;;;;;;24.15;4.28;;;;;;;;;;5068070;28;20021;-52
2022/03/30 12:07:22;;;;;;;29.45;4.65;;;;;;;;;;5066180;28;20045;-51
2022/03/30 12:09:56;;;;;;;21.38;5.38;;;;;;;;;;5068179;28;20036;-52
2022/03/30 12:12:37;;;;;;;32.35;4.78;;;;;;;;;;5062627;28;20040;-51
2022/03/30 12:15:09;;;;;;;23.27;6.28;;;;;;;;;;5062362;28;20067;-54
2022/03/30 12:17:35;;;;;;;;;;;;;;;;;;5067212;28;20113;-53
2022/03/30 12:20:06;;;;;;;28.42;4.35;;;;;;;;;;5065874;28;20026;-53
2022/03/30 12:22:33;;;;;;;20.67;4.07;;;;;;;;;;5067451;28;20523;-49
2022/03/30 12:24:59;;;;;;;24.23;5.55;;;;;;;;;;5065712;28;20513;-53
2022/03/30 12:27:25;;;;;;;20.15;4.78;;;;;;;;;;5067812;28;20039;-51
2022/03/30 12:29:57;;;;;;;28.42;5.30;;;;;;;;;;5063818;28;20048;-53
2022/03/30 12:32:24;;;;;;;16.52;4.60;;;;;;;;;;5063777;28;20032;-53
2022/03/30 12:35:09;;;;;;;17.77;4.53;;;;;;;;;;5066886;28;20644;-52
2022/03/30 12:37:35;;;;;;;14.68;4.28;;;;;;;;;;5067488;28;20085;-51
2022/03/30 12:40:13;;;;;;;16.75;4.05;;;;;;;;;;5067550;28;20041;-54
2022/03/30 12:42:40;;;;;;;25.85;4.22;;;;;;;;;;5067587;28;20025;-52
2022/03/30 12:45:10;;;;;;;17.92;3.72;;;;;;;;;;5055391;28;20103;-54
2022/03/30 12:47:45;;;;;;;20.52;4.18;;;;;;;;;;5060625;28;20036;-53
2022/03/30 12:50:13;;;;;;;15.77;3.55;;;;;;;;;;5059844;28;20034;-51
2022/03/30 12:52:41;;;;;;;21.73;3.97;;;;;;;;;;5067012;28;20055;-52
2022/03/30 12:55:19;;;;;;;24.23;4.53;;;;;;;;;;5068887;28;20060;-50
2022/03/30 12:57:57;;;;;;;15.77;3.45;;;;;;;;;;5067255;28;20024;-50
2022/03/30 13:00:35;;;;;;;25.73;2.92;;;;;;;;;;5063950;28;20029;-50
2022/03/30 13:03:14;;;;;;;19.23;2.75;;;;;;;;;;5066035;28;20033;-51
2022/03/30 13:05:42;;;;;;;20.02;3.03;;;;;;;;;;5065360;28;20040;-52
2022/03/30 13:08:19;;;;;;;28.13;5.40;;;;;;;;;;5076660;28;20113;-51
2022/03/30 13:10:57;;;;;;;18.52;2.63;;;;;;;;;;5061070;28;20032;-52
2022/03/30 13:13:27;;;;;;;20.05;3.13;;;;;;;;;;5062622;28;20494;-51
2022/03/30 13:16:05;;;;;;;27.73;3.67;;;;;;;;;;5078872;28;20410;-49
2022/03/30 13:18:32;;;;;;;21.55;2.97;;;;;;;;;;5065018;28;20036;-50
2022/03/30 13:21:01;;;;;;;18.00;3.10;;;;;;;;;;5065734;28;20033;-50
2022/03/30 13:23:35;;;;;;;19.20;3.25;;;;;;;;;;5064229;28;20127;-51
2022/03/30 13:26:02;;;;;;;18.67;2.67;;;;;;;;;;5065570;28;20024;-50
2022/03/30 13:28:29;;;;;;;15.70;2.60;;;;;;;;;;5065889;28;20086;-50
2022/03/30 13:30:55;;;;;;;29.83;2.90;;;;;;;;;;5065033;28;20028;-52
2022/03/30 13:33:21;;;;;;;14.25;3.20;;;;;;;;;;5061711;28;20077;-49
2022/03/30 13:35:54;;;;;;;9.65;2.45;;;;;;;;;;5061278;28;20429;-49
2022/03/30 13:38:22;;;;;;;13.68;2.40;;;;;;;;;;5062022;28;20028;-52
2022/03/30 13:40:49;;;;;;;11.05;2.15;;;;;;;;;;5065549;28;20035;-53
2022/03/30 13:43:15;;;;;;;19.95;2.78;;;;;;;;;;5061594;28;20055;-51
2022/03/30 13:45:40;;;;;;;12.60;2.58;;;;;;;;;;5064791;28;20032;-49
2022/03/30 13:48:06;;;;;;;15.40;3.28;;;;;;;;;;5060446;28;20116;-50
2022/03/30 13:50:32;;;;;;;15.48;2.60;;;;;;;;;;5061226;28;20271;-50
2022/03/30 13:53:02;;;;;;;9.88;1.95;;;;;;;;;;5065560;28;20037;-49
2022/03/30 13:55:30;;;;;;;12.70;2.22;;;;;;;;;;5063857;28;20036;-50
2022/03/30 13:57:57;;;;;;;20.35;2.92;;;;;;;;;;5066210;28;20081;-50
2022/03/30 14:00:26;;;;;;;15.25;1.98;;;;;;;;;;5063338;28;20480;-50
2022/03/30 14:02:55;;;;;;;20.83;3.15;;;;;;;;;;5061698;28;20109;-50
2022/03/30 14:05:20;;;;;;;12.00;2.08;;;;;;;;;;5067461;28;20028;-50
2022/03/30 14:07:46;;;;;;;18.40;2.33;;;;;;;;;;5067789;28;20572;-51
2022/03/30 14:10:11;;;;;;;20.02;2.33;;;;;;;;;;5063712;28;20032;-51
2022/03/30 14:12:37;;;;;;;13.82;2.20;;;;;;;;;;5066527;28;20036;-51
2022/03/30 14:15:04;;;;;;;11.73;2.63;;;;;;;;;;5062787;28;20048;-50
2022/03/30 14:17:30;;;;;;;27.85;6.05;;;;;;;;;;5062326;28;20097;-50
2022/03/30 14:19:56;;;;;;;14.27;1.95;;;;;;;;;;5068561;28;20024;-50
2022/03/30 14:22:21;;;;;;;18.52;3.05;;;;;;;;;;5059371;28;20033;-51
2022/03/30 14:24:47;;;;;;;17.40;2.15;;;;;;;;;;5063312;28;20028;-50
2022/03/30 14:27:14;;;;;;;12.65;2.08;;;;;;;;;;5065362;28;20044;-53
2022/03/30 14:29:40;;;;;;;21.67;3.38;;;;;;;;;;5064639;28;20780;-50
2022/03/30 14:32:06;;;;;;;31.10;2.90;;;;;;;;;;5065017;28;20046;-50